Time;durP1;ratioP1;P1;durP2;ratioP2;P2;SDS_P1;SDS_P2;PMS_P1;PMS_P2;Temp;Humidity;BMP_temperature;BMP_pressure;BME280_temperature;BME280_humidity;BME280_pressure;Samples;Min_cycle;Max_cycle;Signal;HPM_P1;HPM_P2
2021/06/09 00:00:11;;;;;;;0.50;0.50;;;;;;;15.42;89.04;97369.66;29395;282;63005;-61
2021/06/09 00:00:42;;;;;;;0.50;0.50;;;;;;;15.43;89.03;97371.25;29394;200;64013;-62
2021/06/09 00:01:13;;;;;;;0.50;0.50;;;;;;;15.44;88.82;97377.53;29395;204;63005;-61
2021/06/09 00:01:45;;;;;;;0.50;0.50;;;;;;;15.44;89.30;97366.59;29395;231;63005;-61
2021/06/09 00:02:17;;;;;;;0.50;0.50;;;;;;;15.45;88.97;97370.16;29395;239;63005;-61
2021/06/09 00:02:49;;;;;;;0.50;0.50;;;;;;;15.46;89.32;97369.84;29395;244;63018;-61
2021/06/09 00:03:21;;;;;;;0.50;0.50;;;;;;;15.47;88.96;97370.63;29395;220;63004;-60
2021/06/09 00:03:52;;;;;;;0.50;0.50;;;;;;;15.47;88.85;97376.12;29395;338;63004;-61
2021/06/09 00:04:23;;;;;;;0.50;0.50;;;;;;;15.47;88.83;97367.91;29395;198;63015;-61
2021/06/09 00:04:54;;;;;;;0.50;0.50;;;;;;;15.45;88.83;97370.94;29395;335;63009;-61
2021/06/09 00:05:26;;;;;;;0.50;0.50;;;;;;;15.46;89.07;97379.97;29395;266;63007;-62
2021/06/09 00:05:58;;;;;;;0.50;0.50;;;;;;;15.46;89.09;97374.50;29394;225;64014;-60
2021/06/09 00:06:29;;;;;;;0.50;0.50;;;;;;;15.45;88.79;97375.62;29395;276;63005;-61
2021/06/09 00:07:01;;;;;;;0.50;0.50;;;;;;;15.43;89.14;97371.25;29395;223;63009;-62
2021/06/09 00:07:33;;;;;;;0.50;0.50;;;;;;;15.42;88.85;97374.31;29395;218;63005;-60
2021/06/09 00:08:05;;;;;;;0.50;0.50;;;;;;;15.39;89.12;97370.28;29395;250;63009;-60
2021/06/09 00:08:36;;;;;;;0.50;0.50;;;;;;;15.39;89.22;97370.28;29395;218;63005;-61
2021/06/09 00:09:07;;;;;;;0.50;0.50;;;;;;;15.38;89.36;97368.66;29395;232;63009;-60
2021/06/09 00:09:42;;;;;;;0.50;0.50;;;;;;;15.38;89.11;97368.66;29395;210;63005;-61
2021/06/09 00:10:14;;;;;;;0.50;0.50;;;;;;;15.38;89.41;97373.31;29394;197;64013;-61
2021/06/09 00:10:48;;;;;;;0.50;0.50;;;;;;;15.37;89.36;97372.50;29395;207;63004;-61
2021/06/09 00:11:19;;;;;;;0.50;0.50;;;;;;;15.36;89.71;97370.87;29395;218;63009;-61
2021/06/09 00:11:50;;;;;;;0.50;0.50;;;;;;;15.36;89.34;97365.44;29395;227;63004;-62
2021/06/09 00:12:23;;;;;;;0.50;0.50;;;;;;;15.36;89.56;97370.87;29395;234;63009;-61
2021/06/09 00:12:54;;;;;;;0.50;0.50;;;;;;;15.36;89.54;97370.87;29395;306;63004;-61
2021/06/09 00:13:31;;;;;;;0.50;0.50;;;;;;;15.36;89.50;97372.81;29395;327;63019;-61
2021/06/09 00:14:04;;;;;;;0.50;0.50;;;;;;;15.35;89.85;97368.47;29395;232;63005;-61
2021/06/09 00:14:35;;;;;;;0.50;0.50;;;;;;;15.36;89.81;97364.63;29395;238;63009;-61
2021/06/09 00:15:11;;;;;;;0.50;0.50;;;;;;;15.35;89.77;97368.47;29395;197;63005;-61
2021/06/09 00:15:44;;;;;;;0.50;0.50;;;;;;;15.36;89.57;97370.09;29394;204;64013;-61
2021/06/09 00:16:18;;;;;;;0.50;0.50;;;;;;;15.36;89.99;97365.44;29395;224;63011;-61
2021/06/09 00:16:50;;;;;;;0.50;0.50;;;;;;;15.38;89.78;97368.66;29395;278;63009;-61
2021/06/09 00:17:21;;;;;;;0.50;0.50;;;;;;;15.40;89.75;97369.16;29394;204;63999;-62
2021/06/09 00:17:52;;;;;;;0.50;0.50;;;;;;;15.42;89.93;97363.37;29395;221;63004;-63
2021/06/09 00:18:24;;;;;;;0.50;0.50;;;;;;;15.40;89.74;97363.69;29395;199;63004;-61
2021/06/09 00:18:58;;;;;;;0.50;0.50;;;;;;;15.40;89.96;97366.41;29395;198;63009;-61
2021/06/09 00:19:29;;;;;;;0.50;0.50;;;;;;;15.39;89.55;97358.53;29395;223;63004;-62
2021/06/09 00:20:02;;;;;;;0.50;0.50;;;;;;;15.38;89.96;97360.44;29395;202;63008;-61
2021/06/09 00:20:34;;;;;;;0.50;0.50;;;;;;;15.37;89.94;97364.31;29395;215;63004;-62
2021/06/09 00:21:06;;;;;;;0.50;0.50;;;;;;;15.37;89.67;97360.75;29395;246;63009;-62
2021/06/09 00:21:38;;;;;;;0.50;0.50;;;;;;;15.36;89.87;97357.22;29395;228;63005;-61
2021/06/09 00:22:09;;;;;;;0.50;0.50;;;;;;;15.36;89.82;97365.44;29394;354;64013;-61
2021/06/09 00:22:41;;;;;;;0.50;0.50;;;;;;;15.34;90.04;97367.66;29395;237;63005;-62
2021/06/09 00:23:16;;;;;;;0.50;0.50;;;;;;;15.34;89.86;97364.13;29395;205;63009;-60
2021/06/09 00:23:48;;;;;;;0.50;0.50;;;;;;;15.33;89.73;97366.03;29395;198;63005;-61
2021/06/09 00:24:20;;;;;;;0.50;0.50;;;;;;;15.33;90.09;97366.03;29395;238;63009;-60
2021/06/09 00:24:51;;;;;;;0.50;0.50;;;;;;;15.33;89.85;97368.78;29395;218;63004;-62
2021/06/09 00:25:24;;;;;;;0.50;0.50;;;;;;;15.33;90.03;97360.56;29395;221;63009;-61
2021/06/09 00:25:57;;;;;;;0.50;0.50;;;;;;;15.33;89.79;97362.50;29395;229;63000;-61
2021/06/09 00:26:29;;;;;;;0.50;0.50;;;;;;;15.32;89.90;97364.44;29394;232;64013;-61
2021/06/09 00:27:00;;;;;;;0.50;0.50;;;;;;;15.31;89.65;97362.81;29394;208;64020;-61
2021/06/09 00:27:31;;;;;;;0.50;0.50;;;;;;;15.30;89.63;97355.72;29395;292;63008;-60
2021/06/09 00:28:03;;;;;;;0.50;0.50;;;;;;;15.31;89.58;97362.00;29395;220;63005;-62
2021/06/09 00:28:36;;;;;;;0.50;0.50;;;;;;;15.31;89.60;97362.81;29395;207;63009;-61
2021/06/09 00:29:07;;;;;;;0.50;0.50;;;;;;;15.30;89.87;97361.19;29395;246;63010;-61
2021/06/09 00:29:39;;;;;;;0.50;0.50;;;;;;;15.30;89.83;97355.72;29395;202;63014;-61
2021/06/09 00:30:13;;;;;;;0.50;0.50;;;;;;;15.29;89.63;97356.03;29394;215;64009;-60
2021/06/09 00:30:45;;;;;;;0.50;0.50;;;;;;;15.28;89.64;97363.44;29395;230;63009;-61
2021/06/09 00:31:18;;;;;;;0.50;0.50;;;;;;;15.28;89.78;97357.97;29395;236;63005;-61
2021/06/09 00:31:50;;;;;;;0.50;0.50;;;;;;;15.28;89.81;97363.44;29395;226;63009;-61
2021/06/09 00:32:21;;;;;;;0.50;0.50;;;;;;;15.28;90.05;97357.97;29395;232;63004;-60
2021/06/09 00:32:52;;;;;;;0.50;0.50;;;;;;;15.28;89.79;97357.16;29395;238;63009;-62
2021/06/09 00:33:27;;;;;;;0.50;0.50;;;;;;;15.27;89.65;97359.09;29395;202;63008;-60
2021/06/09 00:33:58;;;;;;;0.50;0.50;;;;;;;15.28;89.78;97359.91;29395;231;63009;-62
2021/06/09 00:34:30;;;;;;;0.50;0.50;;;;;;;15.26;89.66;97360.19;29394;213;64008;-62
2021/06/09 00:35:01;;;;;;;0.50;0.50;;;;;;;15.28;89.86;97359.91;29394;214;64013;-61
2021/06/09 00:35:33;;;;;;;0.55;0.55;;;;;;;15.27;89.88;97355.53;29395;203;63010;-62
2021/06/09 00:36:05;;;;;;;0.50;0.50;;;;;;;15.26;89.91;97357.47;29395;266;63009;-61
2021/06/09 00:36:37;;;;;;;0.50;0.50;;;;;;;15.25;89.76;97361.31;29395;197;63001;-62
2021/06/09 00:37:08;;;;;;;0.60;0.60;;;;;;;15.24;89.89;97357.00;29395;288;63009;-61
2021/06/09 00:37:39;;;;;;;0.50;0.50;;;;;;;15.24;89.92;97354.28;29394;233;64009;-60
2021/06/09 00:38:10;;;;;;;0.50;0.50;;;;;;;15.24;89.97;97357.00;29395;214;63009;-60
2021/06/09 00:38:42;;;;;;;0.50;0.50;;;;;;;15.23;89.88;97366.31;29394;207;64009;-61
2021/06/09 00:39:13;;;;;;;0.50;0.50;;;;;;;15.24;90.50;97357.00;29395;214;64013;-61
2021/06/09 00:39:45;;;;;;;0.50;0.50;;;;;;;15.24;90.22;97357.00;29395;269;63010;-62
2021/06/09 00:40:17;;;;;;;0.50;0.50;;;;;;;15.24;90.08;97358.94;29394;202;64013;-62
2021/06/09 00:40:48;;;;;;;0.50;0.50;;;;;;;15.24;90.09;97362.47;29395;222;63008;-62
2021/06/09 00:41:20;;;;;;;0.50;0.50;;;;;;;15.22;89.80;97359.22;29395;260;63009;-62
2021/06/09 00:41:51;;;;;;;0.50;0.50;;;;;;;15.23;90.22;97360.03;29395;227;63004;-62
2021/06/09 00:42:23;;;;;;;0.50;0.50;;;;;;;15.22;90.19;97359.22;29395;231;63008;-62
2021/06/09 00:43:25;;;;;;;0.50;0.50;;;;;;;15.22;90.35;97366.63;29395;206;63005;-66
2021/06/09 00:43:57;;;;;;;0.50;0.50;;;;;;;15.21;90.31;97367.75;29417;223;63009;-61
2021/06/09 00:44:30;;;;;;;0.50;0.50;;;;;;;15.20;90.41;97364.22;29394;266;64009;-61
2021/06/09 00:45:02;;;;;;;0.50;0.50;;;;;;;15.20;90.17;97366.94;29395;286;63009;-62
2021/06/09 00:45:40;;;;;;;0.50;0.50;;;;;;;15.19;90.41;97359.84;29395;253;63005;-62
2021/06/09 00:46:12;;;;;;;0.50;0.50;;;;;;;15.19;90.63;97351.66;29395;252;63009;-62
2021/06/09 00:46:43;;;;;;;0.50;0.50;;;;;;;15.18;90.28;97358.25;29395;212;63005;-61
2021/06/09 00:47:33;;;;;;;0.50;0.50;;;;;;;15.18;90.56;97360.97;29395;304;63009;-62
2021/06/09 00:48:05;;;;;;;0.50;0.50;;;;;;;15.18;90.28;97369.19;29395;199;63009;-62
2021/06/09 00:48:42;;;;;;;0.50;0.50;;;;;;;15.18;90.42;97363.72;29395;247;63015;-62
2021/06/09 00:49:14;;;;;;;0.50;0.50;;;;;;;15.18;90.07;97358.25;29394;240;64009;-61
2021/06/09 00:49:45;;;;;;;0.50;0.50;;;;;;;15.18;90.11;97362.91;29395;288;63008;-60
2021/06/09 00:50:16;;;;;;;0.50;0.50;;;;;;;15.16;90.19;97357.75;29395;204;63004;-62
2021/06/09 00:50:47;;;;;;;0.50;0.50;;;;;;;15.17;90.05;97364.03;29395;218;63009;-61
2021/06/09 00:51:19;;;;;;;0.50;0.50;;;;;;;15.18;89.81;97363.72;29394;222;64009;-61
2021/06/09 00:51:50;;;;;;;0.50;0.50;;;;;;;15.17;89.76;97364.03;29395;197;63009;-61
2021/06/09 00:52:25;;;;;;;0.50;0.50;;;;;;;15.16;89.87;97365.94;29395;198;63005;-62
2021/06/09 00:54:05;;;;;;;0.50;0.50;;;;;;;15.13;89.78;97372.03;29395;213;63010;-62
2021/06/09 00:54:36;;;;;;;0.50;0.50;;;;;;;15.13;89.98;97366.56;29395;212;63009;-62
2021/06/09 00:55:08;;;;;;;0.50;0.50;;;;;;;15.11;89.93;97368.78;29395;215;63000;-61
2021/06/09 00:55:39;;;;;;;0.50;0.50;;;;;;;15.12;89.66;97366.88;29395;235;63009;-61
2021/06/09 00:56:13;;;;;;;0.50;0.50;;;;;;;15.12;90.18;97369.59;29395;222;63000;-61
2021/06/09 00:56:44;;;;;;;0.50;0.50;;;;;;;15.12;89.94;97366.88;29394;254;64013;-61
2021/06/09 00:57:17;;;;;;;0.50;0.50;;;;;;;15.11;89.98;97374.25;29395;280;63004;-62
2021/06/09 00:57:51;;;;;;;0.40;0.40;;;;;;;15.11;90.11;97374.25;29395;229;63008;-60
2021/06/09 00:58:24;;;;;;;0.50;0.50;;;;;;;15.11;90.17;97368.78;29395;199;63005;-61
2021/06/09 00:58:55;;;;;;;0.50;0.50;;;;;;;15.11;90.16;97368.78;29395;232;63009;-60
2021/06/09 00:59:26;;;;;;;0.50;0.50;;;;;;;15.11;90.17;97371.53;29395;234;63005;-61
2021/06/09 00:59:57;;;;;;;0.50;0.50;;;;;;;15.11;89.91;97373.44;29394;261;64013;-62
2021/06/09 01:00:32;;;;;;;0.50;0.50;;;;;;;15.11;89.70;97374.25;29395;238;63005;-61
2021/06/09 01:01:05;;;;;;;0.50;0.50;;;;;;;15.11;90.08;97371.53;29394;202;64013;-61
2021/06/09 01:01:36;;;;;;;0.50;0.50;;;;;;;15.11;90.01;97379.72;29394;383;64009;-60
2021/06/09 01:02:08;;;;;;;0.50;0.50;;;;;;;15.11;89.96;97371.53;29394;344;64003;-62
2021/06/09 01:02:39;;;;;;;0.50;0.50;;;;;;;15.11;89.76;97368.78;29395;298;63004;-61
2021/06/09 01:03:11;;;;;;;0.50;0.50;;;;;;;15.11;89.89;97371.53;29395;216;63009;-60
2021/06/09 01:03:42;;;;;;;0.50;0.50;;;;;;;15.12;89.93;97375.06;29395;197;63004;-61
2021/06/09 01:04:13;;;;;;;0.50;0.50;;;;;;;15.11;89.87;97373.44;29395;202;63009;-62
2021/06/09 01:04:44;;;;;;;0.50;0.50;;;;;;;15.11;89.61;97379.72;29395;196;63004;-60
2021/06/09 01:05:15;;;;;;;0.50;0.50;;;;;;;15.10;89.82;97375.38;29395;235;63016;-61
2021/06/09 01:05:47;;;;;;;0.50;0.50;;;;;;;15.11;89.69;97368.78;29394;208;64009;-62
2021/06/09 01:06:19;;;;;;;0.50;0.50;;;;;;;15.10;89.93;97372.66;29395;255;63009;-61
2021/06/09 01:06:51;;;;;;;0.50;0.50;;;;;;;15.10;90.11;97369.91;29395;219;63005;-61
2021/06/09 01:07:22;;;;;;;0.50;0.50;;;;;;;15.11;90.18;97374.25;29395;209;63015;-61
2021/06/09 01:07:54;;;;;;;0.50;0.50;;;;;;;15.12;89.60;97375.88;29395;210;63005;-61
2021/06/09 01:08:25;;;;;;;0.50;0.50;;;;;;;15.13;89.90;97371.22;29395;208;63009;-61
2021/06/09 01:08:57;;;;;;;0.50;0.50;;;;;;;15.13;89.76;97372.03;29395;197;63000;-61
2021/06/09 01:09:29;;;;;;;0.40;0.40;;;;;;;15.13;89.89;97377.50;29395;197;63009;-62
2021/06/09 01:10:01;;;;;;;0.50;0.50;;;;;;;15.13;89.86;97377.50;29394;380;64009;-61
2021/06/09 01:10:33;;;;;;;0.50;0.50;;;;;;;15.13;89.93;97376.69;29395;202;63009;-61
2021/06/09 01:11:06;;;;;;;0.50;0.50;;;;;;;15.12;90.12;97369.59;29395;204;63004;-61
2021/06/09 01:11:37;;;;;;;0.50;0.50;;;;;;;15.11;89.97;97382.47;29394;239;64013;-61
2021/06/09 01:12:10;;;;;;;0.50;0.50;;;;;;;15.11;89.97;97378.91;29395;211;63004;-60
2021/06/09 01:12:42;;;;;;;0.50;0.50;;;;;;;15.10;89.74;97375.38;29395;237;63008;-61
2021/06/09 01:13:13;;;;;;;0.50;0.50;;;;;;;15.11;89.83;97378.91;29395;206;63005;-61
2021/06/09 01:13:45;;;;;;;0.50;0.50;;;;;;;15.12;89.85;97377.81;29395;253;63018;-60
2021/06/09 01:14:17;;;;;;;0.50;0.50;;;;;;;15.09;89.99;97376.50;29395;246;63005;-61
2021/06/09 01:14:48;;;;;;;0.50;0.50;;;;;;;15.09;89.79;97380.03;29395;216;63009;-61
2021/06/09 01:15:20;;;;;;;0.50;0.50;;;;;;;15.08;90.01;97375.69;29394;238;64009;-62
2021/06/09 01:15:52;;;;;;;0.50;0.50;;;;;;;15.07;89.83;97384.19;29395;202;63009;-62
2021/06/09 01:16:25;;;;;;;0.50;0.50;;;;;;;15.05;90.11;97380.97;29395;206;63004;-61
2021/06/09 01:16:57;;;;;;;0.50;0.50;;;;;;;15.03;90.41;97380.47;29394;270;64013;-61
2021/06/09 01:17:28;;;;;;;0.50;0.50;;;;;;;15.02;90.35;97381.56;29395;216;63004;-62
2021/06/09 01:17:59;;;;;;;0.50;0.50;;;;;;;14.99;90.52;97382.19;29395;295;63009;-60
2021/06/09 01:18:31;;;;;;;0.50;0.50;;;;;;;14.97;90.71;97381.69;29395;215;63004;-62
2021/06/09 01:19:03;;;;;;;0.50;0.50;;;;;;;14.97;90.52;97384.44;29395;197;63008;-62
2021/06/09 01:19:34;;;;;;;0.50;0.50;;;;;;;14.96;90.49;97378.16;29394;234;64008;-61
2021/06/09 01:20:07;;;;;;;0.50;0.50;;;;;;;14.96;90.29;97378.16;29395;229;63014;-62
2021/06/09 01:20:38;;;;;;;0.60;0.60;;;;;;;14.97;90.49;97378.97;29394;200;64009;-61
2021/06/09 01:21:09;;;;;;;0.50;0.50;;;;;;;14.97;90.56;97382.50;29395;239;63009;-62
2021/06/09 01:21:41;;;;;;;0.50;0.50;;;;;;;14.98;90.62;97381.38;29395;206;63005;-60
2021/06/09 01:22:13;;;;;;;0.50;0.50;;;;;;;14.98;90.42;97380.56;29395;197;63008;-62
2021/06/09 01:22:44;;;;;;;0.50;0.50;;;;;;;14.98;90.39;97381.38;29395;253;63005;-62
2021/06/09 01:23:16;;;;;;;0.50;0.50;;;;;;;14.98;90.81;97375.12;29395;240;63009;-62
2021/06/09 01:23:47;;;;;;;0.50;0.50;;;;;;;14.97;90.46;97374.31;29395;208;63005;-62
2021/06/09 01:24:19;;;;;;;0.50;0.50;;;;;;;14.96;90.43;97377.34;29395;237;63009;-62
2021/06/09 01:24:51;;;;;;;0.50;0.50;;;;;;;14.96;90.40;97377.34;29395;202;63004;-61
2021/06/09 01:25:23;;;;;;;0.50;0.50;;;;;;;14.97;90.67;97376.22;29394;253;64013;-63
2021/06/09 01:25:58;;;;;;;0.50;0.50;;;;;;;14.96;90.66;97382.81;29395;274;63004;-61
2021/06/09 01:26:31;;;;;;;0.50;0.50;;;;;;;14.97;90.81;97378.97;29395;197;63004;-61
2021/06/09 01:27:03;;;;;;;0.50;0.50;;;;;;;14.97;90.44;97378.97;29394;199;64008;-61
2021/06/09 01:27:34;;;;;;;0.50;0.50;;;;;;;14.98;90.63;97386.03;29395;203;63009;-62
2021/06/09 01:28:07;;;;;;;0.50;0.50;;;;;;;14.97;90.65;97378.97;29395;199;63005;-61
2021/06/09 01:28:39;;;;;;;0.50;0.50;;;;;;;14.99;90.64;97379.47;29395;260;63009;-60
2021/06/09 01:29:11;;;;;;;0.50;0.50;;;;;;;14.99;90.43;97376.72;29395;239;63005;-62
2021/06/09 01:29:42;;;;;;;0.50;0.50;;;;;;;14.99;90.54;97376.72;29395;270;63009;-61
2021/06/09 01:30:15;;;;;;;0.50;0.50;;;;;;;15.00;90.30;97383.81;29395;226;63012;-61
2021/06/09 01:30:48;;;;;;;0.50;0.50;;;;;;;14.99;90.60;97377.53;29394;237;64013;-60
2021/06/09 01:31:19;;;;;;;0.50;0.50;;;;;;;15.00;90.46;97379.16;29394;208;64009;-61
2021/06/09 01:31:51;;;;;;;0.50;0.50;;;;;;;15.01;90.32;97380.78;29395;202;63023;-61
2021/06/09 01:32:22;;;;;;;0.50;0.50;;;;;;;15.02;90.49;97376.12;29394;207;64009;-62
2021/06/09 01:32:54;;;;;;;0.50;0.50;;;;;;;15.01;90.69;97379.97;29395;260;63009;-61
2021/06/09 01:33:25;;;;;;;0.50;0.50;;;;;;;15.01;90.51;97369.84;29395;220;63010;-60
2021/06/09 01:34:05;;;;;;;0.50;0.50;;;;;;;15.03;90.73;97377.72;29395;291;63009;-63
2021/06/09 01:34:36;;;;;;;0.50;0.50;;;;;;;15.03;90.30;97375.00;29395;218;63004;-61
2021/06/09 01:35:09;;;;;;;0.50;0.50;;;;;;;15.01;90.75;97375.31;29395;221;63009;-62
2021/06/09 01:35:42;;;;;;;0.50;0.50;;;;;;;15.02;90.34;97371.44;29395;226;63005;-61
2021/06/09 01:36:13;;;;;;;0.50;0.50;;;;;;;15.02;90.66;97376.12;29395;199;63005;-61
2021/06/09 01:36:45;;;;;;;0.50;0.50;;;;;;;15.04;90.58;97373.88;29395;231;63005;-62
2021/06/09 01:37:18;;;;;;;0.50;0.50;;;;;;;15.04;90.56;97373.88;29394;229;64013;-62
2021/06/09 01:37:50;;;;;;;0.50;0.50;;;;;;;15.04;90.58;97373.88;29395;198;63005;-62
2021/06/09 01:38:23;;;;;;;0.50;0.50;;;;;;;15.05;90.61;97375.50;29395;202;63009;-62
2021/06/09 01:38:54;;;;;;;0.50;0.50;;;;;;;15.05;90.64;97380.97;29394;220;64009;-61
2021/06/09 01:39:25;;;;;;;0.50;0.50;;;;;;;15.04;90.42;97362.94;29395;302;63009;-60
2021/06/09 01:39:59;;;;;;;1.40;1.40;;;;;;;15.04;90.21;97380.16;29395;263;63004;-61
2021/06/09 01:40:30;;;;;;;0.50;0.50;;;;;;;15.04;90.44;97377.41;29395;331;63009;-62
2021/06/09 01:41:01;;;;;;;0.50;0.50;;;;;;;15.06;90.31;97377.13;29394;250;64009;-61
2021/06/09 01:41:33;;;;;;;0.50;0.50;;;;;;;15.05;90.61;97375.50;29395;208;63008;-62
2021/06/09 01:42:05;;;;;;;0.50;0.50;;;;;;;15.04;90.44;97379.34;29395;202;63004;-61
2021/06/09 01:42:38;;;;;;;0.50;0.50;;;;;;;15.05;90.54;97379.03;29395;228;63009;-61
2021/06/09 01:43:10;;;;;;;0.50;0.50;;;;;;;15.06;90.27;97371.66;29395;222;63005;-63
2021/06/09 01:43:42;;;;;;;0.50;0.50;;;;;;;15.05;90.62;97373.56;29395;212;63009;-62
2021/06/09 01:44:14;;;;;;;0.50;0.50;;;;;;;15.05;90.43;97375.50;29394;216;64009;-62
2021/06/09 01:44:45;;;;;;;0.50;0.50;;;;;;;15.05;90.49;97375.50;29395;231;63026;-62
2021/06/09 01:45:23;;;;;;;0.50;0.50;;;;;;;15.05;90.47;97375.50;29395;225;63005;-60
2021/06/09 01:45:55;;;;;;;0.50;0.50;;;;;;;15.05;90.38;97380.97;29395;208;63009;-61
2021/06/09 01:46:27;;;;;;;0.50;0.50;;;;;;;15.03;90.56;97372.25;29395;210;63005;-62
2021/06/09 01:46:58;;;;;;;0.50;0.50;;;;;;;15.04;90.50;97379.34;29395;222;63009;-61
2021/06/09 01:47:30;;;;;;;0.50;0.50;;;;;;;15.06;90.75;97377.13;29395;254;63004;-62
2021/06/09 01:48:02;;;;;;;0.50;0.50;;;;;;;15.06;90.38;97371.66;29394;332;64013;-61
2021/06/09 01:48:33;;;;;;;0.50;0.50;;;;;;;15.06;90.51;97372.44;29395;197;63004;-61
2021/06/09 01:49:10;;;;;;;0.50;0.50;;;;;;;15.08;90.49;97380.34;29395;211;63008;-62
2021/06/09 01:49:41;;;;;;;0.50;0.50;;;;;;;15.06;90.51;97367.00;29395;285;63004;-61
2021/06/09 01:50:14;;;;;;;0.50;0.50;;;;;;;15.08;90.29;97369.41;29395;219;63009;-61
2021/06/09 01:50:46;;;;;;;0.50;0.50;;;;;;;15.08;90.24;97369.41;29395;209;63005;-62
2021/06/09 01:51:18;;;;;;;0.50;0.50;;;;;;;15.10;90.45;97372.66;29395;220;63009;-61
2021/06/09 01:51:49;;;;;;;0.50;0.50;;;;;;;15.08;90.45;97369.41;29395;212;63005;-61
2021/06/09 01:52:21;;;;;;;0.50;0.50;;;;;;;15.08;90.25;97369.41;29394;218;64013;-61
2021/06/09 01:52:53;;;;;;;0.50;0.50;;;;;;;15.09;90.56;97371.03;29395;232;63005;-62
2021/06/09 01:53:24;;;;;;;0.50;0.50;;;;;;;15.09;90.32;97357.38;29395;224;63009;-61
2021/06/09 01:53:55;;;;;;;0.50;0.50;;;;;;;15.08;90.38;97367.50;29395;197;63005;-61
2021/06/09 01:54:26;;;;;;;0.50;0.50;;;;;;;15.09;90.41;97365.56;29395;215;63009;-61
2021/06/09 01:54:59;;;;;;;0.50;0.50;;;;;;;15.11;90.54;97362.53;29394;211;64009;-61
2021/06/09 01:55:33;;;;;;;0.50;0.50;;;;;;;15.09;90.28;97365.56;29395;337;63009;-62
2021/06/09 01:56:05;;;;;;;0.50;0.50;;;;;;;15.10;90.54;97367.19;29395;202;63004;-61
2021/06/09 01:56:37;;;;;;;0.50;0.50;;;;;;;15.10;90.56;97367.19;29394;274;64013;-61
2021/06/09 01:57:08;;;;;;;0.50;0.50;;;;;;;15.09;90.28;97366.38;29395;198;63004;-63
2021/06/09 01:57:40;;;;;;;0.50;0.50;;;;;;;15.10;90.33;97367.19;29395;349;63009;-61
2021/06/09 01:58:12;;;;;;;0.50;0.50;;;;;;;15.08;90.31;97362.03;29395;300;63005;-62
2021/06/09 01:58:44;;;;;;;0.50;0.50;;;;;;;15.07;90.71;97360.41;29394;227;64014;-61
2021/06/09 01:59:19;;;;;;;0.50;0.50;;;;;;;15.07;90.58;97365.88;29394;221;64009;-61
2021/06/09 01:59:50;;;;;;;0.50;0.50;;;;;;;15.05;90.89;97361.84;29395;240;63009;-61
2021/06/09 02:00:34;;;;;;;0.50;0.50;;;;;;;15.05;91.04;97364.56;29395;242;63005;-61
2021/06/09 02:01:06;;;;;;;0.50;0.50;;;;;;;15.04;90.89;97369.22;29395;197;63009;-61
2021/06/09 02:01:38;;;;;;;0.50;0.50;;;;;;;15.04;91.05;97362.94;29395;279;63005;-61
2021/06/09 02:02:12;;;;;;;0.50;0.50;;;;;;;15.04;90.90;97373.88;29395;220;63009;-62
2021/06/09 02:02:44;;;;;;;0.50;0.50;;;;;;;15.04;90.99;97362.94;29395;238;63004;-62
2021/06/09 02:03:16;;;;;;;0.50;0.50;;;;;;;15.04;91.06;97365.69;29395;231;63009;-66
2021/06/09 02:03:51;;;;;;;0.50;0.50;;;;;;;15.03;90.58;97372.25;29395;346;63004;-62
2021/06/09 02:04:24;;;;;;;0.50;0.50;;;;;;;15.02;90.99;97365.19;29394;219;64013;-62
2021/06/09 02:04:55;;;;;;;0.50;0.50;;;;;;;15.02;90.91;97362.44;29395;198;63004;-62
2021/06/09 02:05:33;;;;;;;0.50;0.50;;;;;;;15.01;91.29;97363.56;29395;270;63009;-62
2021/06/09 02:06:05;;;;;;;0.50;0.50;;;;;;;15.01;90.78;97364.37;29395;226;63005;-62
2021/06/09 02:06:40;;;;;;;0.50;0.50;;;;;;;15.03;91.04;97358.59;29395;226;63009;-62
2021/06/09 02:07:12;;;;;;;0.50;0.50;;;;;;;15.02;90.95;97357.78;29395;254;63005;-62
2021/06/09 02:07:44;;;;;;;0.50;0.50;;;;;;;15.03;90.98;97361.34;29395;203;63009;-61
2021/06/09 02:08:16;;;;;;;0.50;0.50;;;;;;;15.03;90.75;97361.34;29395;202;63005;-61
2021/06/09 02:08:47;;;;;;;0.50;0.50;;;;;;;15.03;91.12;97364.87;29395;282;63009;-61
2021/06/09 02:09:20;;;;;;;0.50;0.50;;;;;;;15.03;90.89;97364.06;29395;218;63014;-62
2021/06/09 02:09:52;;;;;;;0.50;0.50;;;;;;;15.04;91.09;97360.22;29394;199;64013;-62
2021/06/09 02:10:24;;;;;;;0.50;0.50;;;;;;;15.04;91.15;97357.47;29395;202;63004;-67
2021/06/09 02:10:55;;;;;;;0.50;0.50;;;;;;;15.05;90.81;97353.63;29395;203;63008;-61
2021/06/09 02:11:26;;;;;;;0.50;0.50;;;;;;;15.06;90.92;97355.25;29395;282;63004;-62
2021/06/09 02:12:00;;;;;;;0.50;0.50;;;;;;;15.05;90.75;97354.44;29395;219;63008;-60
2021/06/09 02:12:35;;;;;;;0.50;0.50;;;;;;;15.05;90.83;97350.91;29395;279;63010;-62
2021/06/09 02:13:17;;;;;;;0.50;0.50;;;;;;;15.05;90.95;97359.09;29395;197;63009;-62
2021/06/09 02:13:50;;;;;;;0.50;0.50;;;;;;;15.05;90.85;97359.09;29395;222;63005;-61
2021/06/09 02:14:21;;;;;;;0.50;0.50;;;;;;;15.04;90.91;97357.47;29395;227;63009;-60
2021/06/09 02:14:52;;;;;;;0.40;0.40;;;;;;;15.05;90.69;97359.09;29394;226;64009;-61
2021/06/09 02:15:26;;;;;;;0.50;0.50;;;;;;;15.05;90.73;97354.44;29395;202;63009;-63
2021/06/09 02:15:59;;;;;;;0.50;0.50;;;;;;;15.06;90.68;97360.72;29395;211;63004;-61
2021/06/09 02:16:42;;;;;;;0.50;0.50;;;;;;;15.06;91.02;97356.06;29395;235;63009;-61
2021/06/09 02:17:13;;;;;;;0.50;0.50;;;;;;;15.06;90.91;97353.31;29395;363;63004;-61
2021/06/09 02:17:56;;;;;;;0.50;0.50;;;;;;;15.07;91.00;97352.19;29395;202;63014;-62
2021/06/09 02:18:29;;;;;;;0.50;0.50;;;;;;;15.08;90.60;97353.00;29395;219;63004;-61
2021/06/09 02:19:01;;;;;;;0.50;0.50;;;;;;;15.08;90.73;97353.00;29395;216;63008;-62
2021/06/09 02:19:35;;;;;;;0.50;0.50;;;;;;;15.08;90.90;97358.47;29395;206;63009;-62
2021/06/09 02:20:11;;;;;;;0.50;0.50;;;;;;;15.08;90.89;97353.00;29394;311;64014;-60
2021/06/09 02:20:48;;;;;;;0.50;0.50;;;;;;;15.07;90.80;97362.31;29395;203;63005;-60
2021/06/09 02:21:19;;;;;;;0.50;0.50;;;;;;;15.07;90.96;97356.87;29395;213;63009;-62
2021/06/09 02:21:52;;;;;;;0.50;0.50;;;;;;;15.07;90.84;97356.87;29395;267;63005;-62
2021/06/09 02:22:23;;;;;;;0.50;0.50;;;;;;;15.05;91.10;97359.91;29395;260;63009;-61
2021/06/09 02:22:56;;;;;;;0.50;0.50;;;;;;;15.05;90.74;97359.09;29395;340;63011;-62
2021/06/09 02:23:30;;;;;;;0.50;0.50;;;;;;;15.05;91.13;97356.37;29395;202;63009;-61
2021/06/09 02:24:03;;;;;;;0.50;0.50;;;;;;;15.06;91.25;97357.97;29394;214;64009;-62
2021/06/09 02:24:34;;;;;;;0.50;0.50;;;;;;;15.05;91.22;97359.09;29395;252;63009;-63
2021/06/09 02:25:08;;;;;;;0.50;0.50;;;;;;;15.05;91.23;97361.84;29395;268;63004;-61
2021/06/09 02:25:42;;;;;;;0.50;0.50;;;;;;;15.04;91.23;97357.47;29395;344;63009;-63
2021/06/09 02:26:14;;;;;;;0.50;0.50;;;;;;;15.04;91.03;97355.56;29394;214;64008;-63
2021/06/09 02:26:46;;;;;;;0.50;0.50;;;;;;;15.04;91.47;97358.28;29395;317;63008;-62
2021/06/09 02:27:17;;;;;;;0.50;0.50;;;;;;;15.05;91.32;97359.09;29395;198;63005;-62
2021/06/09 02:27:50;;;;;;;0.50;0.50;;;;;;;15.04;91.11;97363.75;29395;218;63009;-61
2021/06/09 02:28:27;;;;;;;0.50;0.50;;;;;;;15.05;91.20;97364.56;29395;252;63005;-61
2021/06/09 02:29:01;;;;;;;0.50;0.50;;;;;;;15.03;91.73;97356.66;29395;237;63009;-61
2021/06/09 02:29:32;;;;;;;0.50;0.50;;;;;;;15.03;91.64;97350.41;29394;218;64009;-62
2021/06/09 02:30:08;;;;;;;0.50;0.50;;;;;;;15.02;91.50;97359.72;29395;217;63009;-63
2021/06/09 02:30:42;;;;;;;0.50;0.50;;;;;;;15.01;91.45;97358.91;29395;236;63000;-62
2021/06/09 02:31:15;;;;;;;0.50;0.50;;;;;;;15.00;91.71;97351.81;29395;209;63009;-63
2021/06/09 02:31:50;;;;;;;0.50;0.50;;;;;;;15.01;91.63;97358.09;29395;202;63004;-62
2021/06/09 02:32:21;;;;;;;0.50;0.50;;;;;;;15.02;91.58;97362.44;29395;209;63009;-62
2021/06/09 02:32:53;;;;;;;0.50;0.50;;;;;;;15.01;91.51;97358.91;29395;216;63004;-62
2021/06/09 02:33:26;;;;;;;0.50;0.50;;;;;;;15.02;91.49;97355.06;29394;202;64003;-61
2021/06/09 02:33:58;;;;;;;0.50;0.50;;;;;;;15.04;91.48;97362.94;29395;202;63004;-61
2021/06/09 02:34:30;;;;;;;0.50;0.50;;;;;;;15.05;91.56;97359.09;29394;371;64014;-62
2021/06/09 02:35:04;;;;;;;0.50;0.50;;;;;;;15.06;91.15;97355.25;29395;202;63005;-62
2021/06/09 02:35:37;;;;;;;0.50;0.50;;;;;;;15.06;91.34;97355.25;29395;219;63009;-62
2021/06/09 02:36:10;;;;;;;0.50;0.50;;;;;;;15.07;91.07;97359.59;29395;213;63014;-62